Picayune, MS (39466)

05:07 PM CDT die 23o March, anno 2017 (GMT -0500)
Pittari Lane | | Change Station

Elev 125 ft 30.57 °N, 89.63 °W | Updated 36 seconds ago

Plerumque Nubila
Plerumque Nubila
77.5 °F
Feels Like 79 °F
N
4.0
Ventus Variabilis Ventus from Auster

Hodie
High -- | Low -- °F
--% Chance of Precip.
Yesterday
High -- | Low -- °F
Precip. -- in
Pressio 30.18 in
Visibilitas 10.0 milia passuum
Clouds Plerumque Nubila 1800 ft
Index Caloris 79 °F
Frigus in quo Ros apparet 66 °F
Umor 70%
Rainfall 0.00 in
Snow Depth Not available.
6:58 AM 7:12 PM
Waning Crescent, 20% visible
SPECI KASD 232201Z AUTO 14011KT 10SM BKN018 25/18 A3018 RMK AO2 T02500178
Pressio 30.18 in
Visibilitas 10.0 milia passuum
Clouds Plerumque Nubila 1800 ft
Index Caloris 79 °F
Frigus in quo Ros apparet 66 °F
Umor 70%
Rainfall 0.00 in
Snow Depth Not available.
6:58 AM 7:12 PM
Waning Crescent, 20% visible
SPECI KASD 232201Z AUTO 14011KT 10SM BKN018 25/18 A3018 RMK AO2 T02500178

Get Severe Weather Alerts

Thanks for signing up!

Be on the lookout for a verification email in your inbox.

You'll start receiving the daily forecast at 8 AM.

×

10-Day Weather Forecast

Almanac

Astronomy

Mar. 23, 2017 Rise Set
Actual Time
Civil Twilight
Nautical Twilight
Astronomical Twilight
Moon
Length Of Visible Light
Length of Day
Tomorrow will be .
, % of the Moon is Illuminated

Today's Extremes

State Highs State Lows

Community

WunderPhotos

Upload Photos

1,962,540 photos uploaded!

WunderBlog® & News

Nearby

Air Quality

  Air Quality AQ Index Pollutant
Not available.

Snow Depth

Station Depth Elevation

Earthquake Activity

City Distance Mag. Time & Date
Minimum magnitude displayed is 2.5.

Earthquake Activity

City Distance Mag. Time & Date
Minimum magnitude displayed is 2.5.

Coastal Water Temperatures

Locus Calor

Stations

Nearby Weather Stations

Station Location Temp Frigus Venti Frigus in quo Ros apparet Umor Ventus Precip. Elev Renovata Type
                   

Watches & Warnings

There are currently no watches in effect.